createdAt,value
2019-04-01T00:00:56.460Z,23.00
2019-04-01T00:03:00.262Z,24.10
2019-04-01T00:05:04.309Z,24.20
2019-04-01T00:07:08.092Z,24.10
2019-04-01T00:09:11.907Z,25.30
2019-04-01T00:11:15.638Z,25.60
2019-04-01T00:13:19.509Z,25.10
2019-04-01T00:15:23.275Z,25.20
2019-04-01T00:17:26.974Z,23.80
2019-04-01T00:19:30.643Z,24.80
2019-04-01T00:21:34.323Z,24.50
2019-04-01T00:23:37.995Z,24.80
2019-04-01T00:25:41.718Z,24.30
2019-04-01T00:27:45.380Z,24.80
2019-04-01T00:29:49.220Z,25.10
2019-04-01T00:31:52.990Z,24.10
2019-04-01T00:33:57.854Z,24.60
2019-04-01T00:36:01.558Z,24.40
2019-04-01T00:38:05.313Z,24.50
2019-04-01T00:40:09.477Z,24.50
2019-04-01T00:42:29.910Z,24.50
2019-04-01T00:44:33.660Z,24.60
2019-04-01T00:46:37.327Z,24.10
2019-04-01T00:48:41.050Z,24.10
2019-04-01T00:50:44.826Z,24.30
2019-04-01T00:52:48.598Z,24.90
2019-04-01T00:54:52.184Z,24.80
2019-04-01T00:56:56.877Z,24.30
2019-04-01T00:59:00.528Z,25.20
2019-04-01T01:01:04.708Z,25.80
2019-04-01T01:03:08.382Z,26.00
2019-04-01T01:05:12.188Z,26.90
2019-04-01T01:07:15.987Z,26.80
2019-04-01T01:09:19.635Z,26.60
2019-04-01T01:11:23.470Z,27.60
2019-04-01T01:13:27.132Z,27.80
2019-04-01T01:15:30.790Z,28.30
2019-04-01T01:17:34.506Z,28.70
2019-04-01T01:19:38.169Z,28.60
2019-04-01T01:21:41.848Z,29.20
2019-04-01T01:23:45.443Z,29.20
2019-04-01T01:25:49.105Z,29.00
2019-04-01T01:27:52.835Z,29.10
2019-04-01T01:29:56.509Z,30.20
2019-04-01T01:32:00.263Z,30.60
2019-04-01T01:34:03.933Z,31.70
2019-04-01T01:36:07.567Z,31.00
2019-04-01T01:38:11.236Z,31.50
2019-04-01T01:40:14.987Z,32.50
2019-04-01T01:42:18.632Z,33.40
2019-04-01T01:44:22.284Z,33.10
2019-04-01T01:46:25.962Z,34.40
2019-04-01T01:48:29.689Z,36.10
2019-04-01T01:50:33.346Z,35.90
2019-04-01T01:52:37.083Z,37.00
2019-04-01T01:54:40.666Z,36.60
2019-04-01T01:56:44.435Z,36.30
2019-04-01T01:58:48.182Z,37.10
2019-04-01T02:00:53.554Z,36.90
2019-04-01T02:02:57.248Z,36.80
2019-04-01T02:05:00.855Z,35.60
2019-04-01T02:07:04.616Z,37.20
2019-04-01T02:09:08.375Z,37.30
2019-04-01T02:11:12.100Z,36.60
2019-04-01T02:13:15.730Z,36.60
2019-04-01T02:15:19.528Z,36.40
2019-04-01T02:17:23.154Z,35.50
2019-04-01T02:19:26.752Z,36.30
2019-04-01T02:21:30.382Z,35.30
2019-04-01T02:23:34.014Z,34.40
2019-04-01T02:25:37.610Z,34.60
2019-04-01T02:27:41.319Z,34.50
2019-04-01T02:29:45.897Z,34.30
2019-04-01T02:31:49.569Z,34.70
2019-04-01T02:33:53.353Z,33.40
2019-04-01T02:35:57.083Z,33.80
2019-04-01T02:38:00.812Z,33.70
2019-04-01T02:40:05.915Z,34.10
2019-04-01T02:42:09.700Z,34.30
2019-04-01T02:44:13.400Z,34.60
2019-04-01T02:46:17.142Z,34.80
2019-04-01T02:48:20.858Z,35.10
2019-04-01T02:50:24.512Z,36.20
2019-04-01T02:52:28.315Z,35.50
2019-04-01T02:54:31.919Z,35.90
2019-04-01T02:56:35.603Z,35.70
2019-04-01T02:58:39.406Z,36.70
2019-04-01T03:00:43.145Z,36.50
2019-04-01T03:02:46.951Z,36.50
2019-04-01T03:04:50.777Z,37.70
2019-04-01T03:06:54.492Z,39.30
2019-04-01T03:08:58.258Z,40.20
2019-04-01T03:11:01.858Z,42.40
2019-04-01T03:13:05.633Z,43.10
2019-04-01T03:15:09.462Z,44.20
2019-04-01T03:17:13.266Z,44.30
2019-04-01T03:19:17.036Z,44.40
2019-04-01T03:21:20.843Z,45.30
2019-04-01T03:23:24.727Z,46.20
2019-04-01T03:25:28.478Z,47.00
2019-04-01T03:27:32.123Z,47.20
2019-04-01T03:29:35.982Z,47.70
2019-04-01T03:31:39.654Z,48.60
2019-04-01T03:33:43.424Z,49.30
2019-04-01T03:35:47.090Z,50.20
2019-04-01T03:37:50.752Z,53.20
2019-04-01T03:39:54.627Z,54.80
2019-04-01T03:41:58.351Z,55.10
2019-04-01T03:44:01.987Z,54.10
2019-04-01T03:46:05.718Z,54.20
2019-04-01T03:48:09.501Z,55.00
2019-04-01T03:50:13.258Z,54.50
2019-04-01T03:52:16.922Z,54.70
2019-04-01T03:54:21.921Z,53.90
2019-04-01T03:56:25.578Z,54.40
2019-04-01T03:58:29.344Z,53.20
2019-04-01T04:00:33.093Z,53.20
2019-04-01T04:02:36.831Z,53.00
2019-04-01T04:04:40.663Z,53.00
2019-04-01T04:06:44.331Z,53.20
2019-04-01T04:08:47.957Z,53.00
2019-04-01T04:10:51.643Z,52.80
2019-04-01T04:12:55.293Z,52.50
2019-04-01T04:14:58.927Z,51.70
2019-04-01T04:17:02.597Z,53.20
2019-04-01T04:19:06.395Z,52.50
2019-04-01T04:21:11.144Z,53.50
2019-04-01T04:23:15.005Z,52.70
2019-04-01T04:25:18.904Z,53.20
2019-04-01T04:27:22.870Z,54.80
2019-04-01T04:29:26.929Z,54.70
2019-04-01T04:31:30.536Z,55.30
2019-04-01T04:33:35.204Z,57.00
2019-04-01T04:35:38.842Z,58.50
2019-04-01T04:37:42.641Z,60.50
2019-04-01T04:39:46.387Z,61.50
2019-04-01T04:41:50.050Z,61.60
2019-04-01T04:43:53.705Z,62.50
2019-04-01T04:45:57.395Z,64.90
2019-04-01T04:48:01.009Z,63.00
2019-04-01T04:50:05.523Z,62.90
2019-04-01T04:52:09.239Z,62.40
2019-04-01T04:54:12.912Z,62.60
2019-04-01T04:56:16.689Z,63.00
2019-04-01T04:58:20.431Z,62.80
2019-04-01T05:00:24.104Z,62.70
2019-04-01T05:02:27.834Z,63.80
2019-04-01T05:04:31.531Z,62.00
2019-04-01T05:06:35.265Z,62.30
2019-04-01T05:08:39.039Z,62.00
2019-04-01T05:10:42.735Z,62.50
2019-04-01T05:12:46.472Z,62.00
2019-04-01T05:14:50.458Z,62.10
2019-04-01T05:16:54.492Z,61.90
2019-04-01T05:18:58.607Z,61.70
2019-04-01T05:21:03.137Z,62.20
2019-04-01T05:23:08.927Z,61.60
2019-04-01T05:25:12.882Z,62.10
2019-04-01T05:27:20.256Z,62.00
2019-04-01T05:29:25.904Z,61.70
2019-04-01T05:31:31.148Z,61.60
2019-04-01T05:33:36.719Z,62.60
2019-04-01T05:35:40.793Z,63.10
2019-04-01T05:37:45.844Z,64.40
2019-04-01T05:39:50.075Z,64.40
2019-04-01T05:41:53.986Z,65.80
2019-04-01T05:43:57.899Z,70.40
2019-04-01T05:46:01.736Z,70.50
2019-04-01T05:48:05.534Z,70.40
2019-04-01T05:50:09.384Z,71.20
2019-04-01T05:52:13.484Z,74.20
2019-04-01T05:54:17.458Z,76.60
2019-04-01T05:56:21.455Z,78.70
2019-04-01T05:58:26.520Z,80.10
2019-04-01T06:00:35.065Z,80.60
2019-04-01T06:02:38.917Z,82.40
2019-04-01T06:04:44.260Z,85.70
2019-04-01T06:06:49.014Z,87.60
2019-04-01T06:08:53.014Z,87.40
2019-04-01T06:10:56.991Z,87.10
2019-04-01T06:13:00.897Z,87.40
2019-04-01T06:15:06.654Z,87.00
2019-04-01T06:17:10.710Z,88.10
2019-04-01T06:19:15.607Z,87.10
2019-04-01T06:21:21.164Z,88.10
2019-04-01T06:23:24.963Z,88.30
2019-04-01T06:25:28.769Z,87.40
2019-04-01T06:27:33.026Z,85.90
2019-04-01T06:29:37.312Z,84.00
2019-04-01T06:31:41.235Z,83.60
2019-04-01T06:33:45.148Z,84.30
2019-04-01T06:35:49.183Z,83.80
2019-04-01T06:37:53.125Z,85.30
2019-04-01T06:39:58.041Z,83.00
2019-04-01T06:42:02.042Z,74.60
2019-04-01T06:44:06.087Z,76.00
2019-04-01T06:46:11.105Z,74.70
2019-04-01T06:48:15.307Z,72.60
2019-04-01T06:50:19.201Z,68.20
2019-04-01T06:52:23.199Z,64.70
2019-04-01T06:54:27.631Z,61.10
2019-04-01T06:56:31.516Z,59.10
2019-04-01T06:58:36.009Z,54.10
2019-04-01T07:00:40.038Z,48.50
2019-04-01T07:02:44.292Z,45.80
2019-04-01T07:04:49.289Z,43.50
2019-04-01T07:07:00.679Z,40.00
2019-04-01T07:09:06.724Z,34.80
2019-04-01T07:11:10.975Z,31.20
2019-04-01T07:13:16.367Z,32.00
2019-04-01T07:15:20.597Z,26.50
2019-04-01T07:17:24.660Z,26.30
2019-04-01T07:19:28.553Z,26.90
2019-04-01T07:21:33.809Z,26.60
2019-04-01T07:23:37.834Z,26.70
2019-04-01T07:25:42.876Z,27.30
2019-04-01T07:27:47.216Z,26.20
2019-04-01T07:29:51.154Z,25.40
2019-04-01T07:31:55.585Z,23.60
2019-04-01T07:34:00.040Z,24.60
2019-04-01T07:36:04.392Z,26.20
2019-04-01T07:38:08.546Z,27.50
2019-04-01T07:40:14.135Z,29.10
2019-04-01T07:42:18.372Z,27.40
2019-04-01T07:44:22.601Z,25.40
2019-04-01T07:46:27.031Z,25.40
2019-04-01T07:48:31.773Z,26.90
2019-04-01T07:50:36.056Z,26.90
2019-04-01T07:52:40.298Z,26.00
2019-04-01T07:54:44.235Z,27.50
2019-04-01T07:56:48.218Z,27.20
2019-04-01T07:58:52.149Z,27.70
2019-04-01T08:00:56.256Z,26.80
2019-04-01T08:03:00.249Z,26.60
2019-04-01T08:05:04.583Z,24.00
2019-04-01T08:07:08.686Z,25.70
2019-04-01T08:09:12.686Z,25.30
2019-04-01T08:11:16.549Z,23.60
2019-04-01T08:13:20.555Z,23.20
2019-04-01T08:15:43.829Z,21.90
2019-04-01T08:17:47.664Z,20.50
2019-04-01T08:19:51.867Z,18.70
2019-04-01T08:21:55.884Z,19.60
2019-04-01T08:23:59.875Z,20.60
2019-04-01T08:26:04.232Z,19.60
2019-04-01T08:28:08.499Z,19.90
2019-04-01T08:30:12.621Z,18.30
2019-04-01T08:32:16.726Z,17.20
2019-04-01T08:34:20.713Z,20.20
2019-04-01T08:36:24.928Z,17.70
2019-04-01T08:38:29.151Z,16.70
2019-04-01T08:40:33.054Z,16.40
2019-04-01T08:42:37.051Z,16.90
2019-04-01T08:44:41.080Z,14.50
2019-04-01T08:46:45.143Z,13.70
2019-04-01T08:48:49.688Z,11.80
2019-04-01T08:50:53.894Z,12.00
2019-04-01T08:52:57.915Z,10.90
2019-04-01T08:55:01.835Z,12.50
2019-04-01T08:57:05.770Z,13.90
2019-04-01T08:59:09.977Z,12.80
2019-04-01T09:01:13.914Z,11.10
2019-04-01T09:03:17.817Z,11.70
2019-04-01T09:05:21.901Z,12.80
2019-04-01T09:07:26.777Z,13.90
2019-04-01T09:09:32.102Z,13.90
2019-04-01T09:11:38.403Z,12.90
2019-04-01T09:13:42.355Z,12.90
2019-04-01T09:15:46.450Z,12.90
2019-04-01T09:17:50.589Z,11.20
2019-04-01T09:19:54.567Z,12.20
2019-04-01T09:21:59.702Z,13.00
2019-04-01T09:24:04.035Z,12.30
2019-04-01T09:26:08.161Z,12.00
2019-04-01T09:28:12.227Z,12.70
2019-04-01T09:30:18.740Z,10.70
2019-04-01T09:32:22.532Z,11.30
2019-04-01T09:34:26.706Z,10.70
2019-04-01T09:36:30.749Z,10.60
2019-04-01T09:38:34.822Z,10.50
2019-04-01T09:40:38.940Z,10.00
2019-04-01T09:42:43.134Z,11.20
2019-04-01T09:44:47.139Z,10.40
2019-04-01T09:46:51.300Z,11.20
2019-04-01T09:48:55.929Z,10.70
2019-04-01T09:51:00.195Z,10.50
2019-04-01T09:53:04.233Z,8.00
2019-04-01T09:55:09.458Z,9.40
2019-04-01T09:57:17.742Z,10.10
2019-04-01T09:59:19.000Z,9.40
2019-04-01T10:01:22.984Z,9.60
2019-04-01T10:03:27.043Z,8.20
2019-04-01T10:05:31.035Z,8.50
2019-04-01T10:07:35.024Z,7.30
2019-04-01T10:09:38.956Z,7.60
2019-04-01T10:11:42.842Z,7.00
2019-04-01T10:13:46.835Z,7.70
2019-04-01T10:15:50.971Z,8.40
2019-04-01T10:17:54.933Z,6.20
2019-04-01T10:20:00.844Z,5.70
2019-04-01T10:22:04.558Z,5.10
2019-04-01T10:24:08.466Z,4.60
2019-04-01T10:26:12.567Z,5.60
2019-04-01T10:28:16.582Z,8.00
2019-04-01T10:30:21.276Z,6.80
2019-04-01T10:32:25.218Z,3.80
2019-04-01T10:34:29.223Z,3.70
2019-04-01T10:36:33.417Z,2.70
2019-04-01T10:38:37.277Z,2.30
2019-04-01T10:40:41.301Z,2.70
2019-04-01T10:42:45.278Z,3.70
2019-04-01T10:44:49.047Z,3.10
2019-04-01T10:46:53.082Z,3.70
2019-04-01T10:48:57.254Z,2.70
2019-04-01T10:51:02.296Z,2.50
2019-04-01T10:53:06.387Z,3.70
2019-04-01T10:55:10.797Z,5.80
2019-04-01T10:57:15.068Z,3.10
2019-04-01T10:59:18.978Z,2.20
2019-04-01T11:01:23.063Z,1.00
2019-04-01T11:03:28.679Z,4.00
2019-04-01T11:05:32.727Z,2.50
2019-04-01T11:07:37.190Z,1.40
2019-04-01T11:09:41.238Z,1.00
2019-04-01T11:11:47.346Z,1.00
2019-04-01T11:13:51.995Z,1.30
2019-04-01T11:15:58.250Z,1.00
2019-04-01T11:18:02.209Z,1.00
2019-04-01T11:20:08.053Z,1.40
2019-04-01T11:22:12.450Z,1.00
2019-04-01T11:24:16.379Z,1.00
2019-04-01T11:26:20.263Z,1.00
2019-04-01T11:28:24.293Z,1.00
2019-04-01T11:30:28.262Z,1.00
2019-04-01T11:32:33.336Z,1.00
2019-04-01T11:34:37.386Z,1.00
2019-04-01T11:36:42.214Z,1.40
2019-04-01T11:38:47.196Z,1.00
2019-04-01T11:40:51.053Z,1.00
2019-04-01T11:42:55.078Z,1.00
2019-04-01T11:44:58.975Z,1.00
2019-04-01T11:47:02.909Z,1.00
2019-04-01T11:49:06.931Z,1.00
2019-04-01T11:51:11.019Z,1.00
2019-04-01T11:53:14.997Z,1.00
2019-04-01T11:55:18.961Z,1.00
2019-04-01T11:57:22.915Z,1.00
2019-04-01T11:59:26.871Z,1.00
2019-04-01T12:01:30.763Z,1.00
2019-04-01T12:03:34.687Z,1.00
2019-04-01T12:05:38.666Z,1.00
2019-04-01T12:07:42.613Z,1.00
2019-04-01T12:09:46.538Z,1.00
2019-04-01T12:11:50.744Z,1.00
2019-04-01T12:13:55.033Z,1.00
2019-04-01T12:15:58.973Z,1.00
2019-04-01T12:18:03.067Z,1.00
2019-04-01T12:20:07.706Z,1.00
2019-04-01T12:22:12.999Z,1.00
2019-04-01T12:24:16.938Z,1.00
2019-04-01T12:26:20.932Z,1.00
2019-04-01T12:28:24.882Z,1.00
2019-04-01T12:30:28.829Z,1.00
2019-04-01T12:32:33.005Z,1.00
2019-04-01T12:34:36.891Z,1.00
2019-04-01T12:36:40.851Z,1.00
2019-04-01T12:38:44.790Z,1.00
2019-04-01T12:40:48.860Z,1.00
2019-04-01T12:42:52.847Z,1.00
2019-04-01T12:44:56.786Z,1.00
2019-04-01T12:47:00.774Z,1.00
2019-04-01T12:49:05.059Z,1.00
2019-04-01T12:51:09.117Z,1.00
2019-04-01T12:53:13.235Z,1.00
2019-04-01T12:55:17.196Z,1.00
2019-04-01T12:57:21.375Z,1.00
2019-04-01T12:59:25.867Z,1.00
2019-04-01T13:01:29.931Z,1.00
2019-04-01T13:03:33.940Z,1.00
2019-04-01T13:05:37.904Z,1.00
2019-04-01T13:07:42.064Z,1.00
2019-04-01T13:09:46.089Z,1.00
2019-04-01T13:11:50.177Z,1.00
2019-04-01T13:13:54.584Z,1.00
2019-04-01T13:15:58.706Z,1.00
2019-04-01T13:18:02.708Z,1.00
2019-04-01T13:20:07.757Z,1.00
2019-04-01T13:22:11.731Z,1.00
2019-04-01T13:24:16.109Z,1.00
2019-04-01T13:26:20.141Z,1.00
2019-04-01T13:28:26.007Z,1.00
2019-04-01T13:30:30.246Z,1.00
2019-04-01T13:32:33.840Z,1.00
2019-04-01T13:34:37.731Z,1.00
2019-04-01T13:36:41.510Z,1.00
2019-04-01T13:38:46.290Z,1.00
2019-04-01T13:40:50.048Z,1.00
2019-04-01T13:42:53.812Z,1.00
2019-04-01T13:44:57.613Z,1.00
2019-04-01T13:47:01.330Z,1.00
2019-04-01T13:49:05.306Z,1.00
2019-04-01T13:51:09.335Z,1.00
2019-04-01T13:53:13.196Z,1.00
2019-04-01T13:55:16.934Z,1.00
2019-04-01T13:57:20.591Z,1.00
2019-04-01T13:59:24.339Z,1.00
2019-04-01T14:01:28.162Z,1.00
2019-04-01T14:03:31.936Z,1.00
2019-04-01T14:05:35.627Z,1.00
2019-04-01T14:07:39.473Z,1.00
2019-04-01T14:09:43.267Z,1.00
2019-04-01T14:11:47.016Z,1.00
2019-04-01T14:13:51.063Z,1.00
2019-04-01T14:15:54.821Z,1.00
2019-04-01T14:17:59.680Z,1.00
2019-04-01T14:20:03.417Z,1.00
2019-04-01T14:22:17.200Z,1.00
2019-04-01T14:24:30.750Z,1.00
2019-04-01T14:26:34.531Z,1.00
2019-04-01T14:28:38.537Z,1.00
2019-04-01T14:30:42.401Z,1.00
2019-04-01T14:32:46.102Z,1.00
2019-04-01T14:34:50.534Z,1.00
2019-04-01T14:36:54.483Z,1.00
2019-04-01T14:38:58.405Z,1.00
2019-04-01T14:41:01.971Z,1.00
2019-04-01T14:43:05.786Z,1.00
2019-04-01T14:45:11.590Z,1.00
2019-04-01T14:47:15.217Z,1.00
2019-04-01T14:49:19.046Z,1.00
2019-04-01T14:51:22.816Z,1.00
2019-04-01T14:53:26.555Z,1.00
2019-04-01T14:55:31.119Z,1.00
2019-04-01T14:57:35.251Z,1.00
2019-04-01T14:59:39.155Z,1.00
2019-04-01T15:01:43.098Z,1.00
2019-04-01T15:03:46.871Z,1.00
2019-04-01T15:05:50.675Z,1.00
2019-04-01T15:07:54.467Z,1.00
2019-04-01T15:09:58.220Z,1.00
2019-04-01T15:12:20.820Z,1.00
2019-04-01T15:14:24.588Z,1.00
2019-04-01T15:16:34.637Z,1.00
2019-04-01T15:18:38.354Z,1.00
2019-04-01T15:20:42.875Z,1.00
2019-04-01T15:22:47.705Z,1.00
2019-04-01T15:24:51.411Z,1.00
2019-04-01T15:26:55.648Z,1.00
2019-04-01T15:29:00.265Z,1.00
2019-04-01T15:31:04.403Z,1.00
2019-04-01T15:33:08.156Z,1.00
2019-04-01T15:35:14.313Z,1.00
2019-04-01T15:37:18.022Z,1.00
2019-04-01T15:39:21.978Z,1.00
2019-04-01T15:41:26.856Z,1.00
2019-04-01T15:43:30.774Z,1.00
2019-04-01T15:45:35.453Z,1.00
2019-04-01T15:47:39.511Z,1.00
2019-04-01T15:49:43.119Z,1.00
2019-04-01T15:51:46.803Z,1.00
2019-04-01T15:53:51.446Z,1.00
2019-04-01T15:55:56.741Z,1.00
2019-04-01T15:58:00.447Z,1.00
2019-04-01T16:00:05.683Z,1.00
2019-04-01T16:02:09.919Z,1.00
2019-04-01T16:04:16.301Z,1.00
2019-04-01T16:06:19.074Z,1.00
2019-04-01T16:08:23.162Z,1.00
2019-04-01T16:10:29.341Z,1.00
2019-04-01T16:12:32.394Z,1.00
2019-04-01T16:14:35.937Z,1.00
2019-04-01T16:16:39.671Z,1.00
2019-04-01T16:18:43.405Z,1.00
2019-04-01T16:20:47.717Z,1.00
2019-04-01T16:22:51.821Z,1.00
2019-04-01T16:24:55.622Z,1.00
2019-04-01T16:27:13.522Z,1.00
2019-04-01T16:29:34.903Z,1.00
2019-04-01T16:31:34.392Z,1.00
2019-04-01T16:33:38.045Z,1.00
2019-04-01T16:35:41.778Z,1.00
2019-04-01T16:37:45.471Z,1.00
2019-04-01T16:39:49.442Z,1.00
2019-04-01T16:41:53.255Z,1.00
2019-04-01T16:43:56.996Z,1.00
2019-04-01T16:46:00.802Z,1.00
2019-04-01T16:48:04.569Z,1.00
2019-04-01T16:50:09.836Z,1.00
2019-04-01T16:52:15.395Z,1.00
2019-04-01T16:54:18.970Z,1.00
2019-04-01T16:56:23.106Z,1.00
2019-04-01T16:58:26.687Z,1.00
2019-04-01T17:00:30.365Z,1.00
2019-04-01T17:02:34.079Z,1.00
2019-04-01T17:04:37.804Z,1.00
2019-04-01T17:06:41.571Z,1.00
2019-04-01T17:08:45.253Z,1.00
2019-04-01T17:10:49.091Z,1.00
2019-04-01T17:12:52.869Z,1.00
2019-04-01T17:14:56.542Z,1.00
2019-04-01T17:17:00.315Z,1.00
2019-04-01T17:19:04.094Z,1.00
2019-04-01T17:21:07.773Z,1.00
2019-04-01T17:23:11.491Z,1.00
2019-04-01T17:25:15.239Z,1.00
2019-04-01T17:27:19.007Z,1.00
2019-04-01T17:29:22.774Z,1.00
2019-04-01T17:31:26.472Z,1.00
2019-04-01T17:33:30.256Z,1.00
2019-04-01T17:35:33.901Z,1.00
2019-04-01T17:37:38.109Z,1.00
2019-04-01T17:39:42.100Z,1.00
2019-04-01T17:41:46.406Z,1.00
2019-04-01T17:43:50.832Z,1.00
2019-04-01T17:45:55.510Z,1.00
2019-04-01T17:48:00.682Z,1.00
2019-04-01T17:50:06.705Z,1.00
2019-04-01T17:52:10.441Z,1.00
2019-04-01T17:54:14.331Z,1.00
2019-04-01T17:56:18.407Z,1.00
2019-04-01T17:58:22.233Z,1.00
2019-04-01T18:00:27.736Z,1.00
2019-04-01T18:02:31.505Z,1.00
2019-04-01T18:04:35.182Z,1.00
2019-04-01T18:06:39.022Z,1.00
2019-04-01T18:08:42.881Z,1.00
2019-04-01T18:10:48.926Z,1.00
2019-04-01T18:12:52.932Z,1.00
2019-04-01T18:14:56.740Z,1.00
2019-04-01T18:17:00.360Z,1.00
2019-04-01T18:19:04.272Z,1.00
2019-04-01T18:21:07.877Z,1.00
2019-04-01T18:23:12.127Z,1.00
2019-04-01T18:25:16.086Z,1.00
2019-04-01T18:27:19.924Z,1.00
2019-04-01T18:29:23.757Z,1.00
2019-04-01T18:31:27.677Z,1.00
2019-04-01T18:33:32.099Z,1.00
2019-04-01T18:35:35.724Z,1.00
2019-04-01T18:37:39.512Z,1.00
2019-04-01T18:39:48.316Z,1.00
2019-04-01T18:41:48.548Z,1.40
2019-04-01T18:43:52.396Z,1.70
2019-04-01T18:45:56.059Z,1.90
2019-04-01T18:47:59.757Z,2.20
2019-04-01T18:50:04.200Z,2.20
2019-04-01T18:52:09.098Z,2.40
2019-04-01T18:54:13.320Z,2.40
2019-04-01T18:56:18.093Z,2.70
2019-04-01T18:58:21.865Z,2.80
2019-04-01T19:00:25.690Z,3.30
2019-04-01T19:02:29.440Z,3.20
2019-04-01T19:04:34.219Z,3.60
2019-04-01T19:06:38.263Z,3.80
2019-04-01T19:08:42.035Z,4.00
2019-04-01T19:10:45.705Z,3.70
2019-04-01T19:12:49.369Z,3.60
2019-04-01T19:14:53.143Z,3.70
2019-04-01T19:16:56.803Z,4.00
2019-04-01T19:19:00.511Z,5.10
2019-04-01T19:21:05.044Z,5.10
2019-04-01T19:23:09.389Z,5.00
2019-04-01T19:25:13.214Z,5.10
2019-04-01T19:27:17.089Z,5.30
2019-04-01T19:29:20.952Z,5.70
2019-04-01T19:31:24.867Z,6.10
2019-04-01T19:33:28.777Z,6.20
2019-04-01T19:35:33.108Z,6.40
2019-04-01T19:37:37.082Z,6.50
2019-04-01T19:39:40.880Z,6.90
2019-04-01T19:41:44.671Z,7.10
2019-04-01T19:43:51.033Z,7.00
2019-04-01T19:45:53.887Z,7.00
2019-04-01T19:47:57.922Z,6.80
2019-04-01T19:50:02.583Z,6.30
2019-04-01T19:52:09.757Z,7.30
2019-04-01T19:54:13.006Z,7.60
2019-04-01T19:56:16.998Z,6.90
2019-04-01T19:58:22.211Z,7.30
2019-04-01T20:02:37.938Z,7.90
2019-04-01T20:04:41.697Z,8.50
2019-04-01T20:06:47.187Z,8.20
2019-04-01T20:08:52.535Z,8.50
2019-04-01T20:10:57.652Z,8.80
2019-04-01T20:13:04.104Z,8.90
2019-04-01T20:15:12.178Z,8.90
2019-04-01T20:17:16.383Z,9.00
2019-04-01T20:19:20.299Z,9.10
2019-04-01T20:21:24.323Z,9.90
2019-04-01T20:23:28.224Z,10.30
2019-04-01T20:25:32.340Z,10.30
2019-04-01T20:27:36.097Z,10.50
2019-04-01T20:29:40.593Z,10.40
2019-04-01T20:31:46.737Z,10.80
2019-04-01T20:33:51.438Z,11.00
2019-04-01T20:35:55.147Z,11.30
2019-04-01T20:37:59.078Z,11.30
2019-04-01T20:40:03.552Z,11.80
2019-04-01T20:42:08.165Z,11.90
2019-04-01T20:44:12.424Z,12.20
2019-04-01T20:46:16.651Z,12.30
2019-04-01T20:48:20.697Z,12.40
2019-04-01T20:50:25.074Z,12.20
2019-04-01T20:52:29.129Z,13.00
2019-04-01T20:54:33.015Z,12.70
2019-04-01T20:56:36.701Z,12.50
2019-04-01T20:58:41.234Z,12.60
2019-04-01T21:00:46.380Z,12.40
2019-04-01T21:02:50.471Z,12.90
2019-04-01T21:04:55.141Z,12.90
2019-04-01T21:07:00.226Z,13.20
2019-04-01T21:09:07.744Z,13.60
2019-04-01T21:11:12.123Z,13.90
2019-04-01T21:13:16.230Z,14.40
2019-04-01T21:15:20.450Z,14.40
2019-04-01T21:17:24.441Z,14.10
2019-04-01T21:19:28.144Z,14.80
2019-04-01T21:21:32.264Z,15.00
2019-04-01T21:23:36.504Z,14.70
2019-04-01T21:25:40.589Z,15.30
2019-04-01T21:27:44.674Z,14.70
2019-04-01T21:29:48.684Z,15.60
2019-04-01T21:31:52.546Z,15.50
2019-04-01T21:33:56.483Z,15.70
2019-04-01T21:36:00.251Z,15.70
2019-04-01T21:38:04.579Z,16.10
2019-04-01T21:40:08.834Z,16.60
2019-04-01T21:42:12.718Z,16.10
2019-04-01T21:44:17.233Z,15.80
2019-04-01T21:46:22.379Z,16.00
2019-04-01T21:48:26.535Z,16.30
2019-04-01T21:50:30.246Z,16.80
2019-04-01T21:52:34.378Z,17.90
2019-04-01T21:54:38.397Z,17.00
2019-04-01T21:56:42.502Z,17.00
2019-04-01T21:58:46.599Z,17.10
2019-04-01T22:00:56.035Z,17.10
2019-04-01T22:02:59.891Z,17.80
2019-04-01T22:05:04.255Z,17.50
2019-04-01T22:07:09.895Z,17.40
2019-04-01T22:09:13.756Z,17.70
2019-04-01T22:11:17.576Z,17.90
2019-04-01T22:13:21.281Z,17.80
2019-04-01T22:15:24.970Z,17.20
2019-04-01T22:17:28.853Z,17.20
2019-04-01T22:19:32.690Z,18.00
2019-04-01T22:21:37.188Z,18.50
2019-04-01T22:23:40.975Z,18.40
2019-04-01T22:25:44.643Z,18.70
2019-04-01T22:27:48.419Z,18.90
2019-04-01T22:29:52.175Z,18.80
2019-04-01T22:31:55.929Z,18.70
2019-04-01T22:33:59.803Z,19.50
2019-04-01T22:36:04.803Z,19.70
2019-04-01T22:38:08.512Z,20.10
2019-04-01T22:40:12.434Z,20.30
2019-04-01T22:42:16.191Z,19.50
2019-04-01T22:44:19.952Z,19.60
2019-04-01T22:46:23.903Z,20.70
2019-04-01T22:48:27.592Z,20.80
2019-04-01T22:50:31.196Z,21.10
2019-04-01T22:52:35.374Z,21.00
2019-04-01T22:54:39.519Z,20.80
2019-04-01T22:56:43.975Z,20.90
2019-04-01T22:58:48.294Z,21.10
2019-04-01T23:00:52.590Z,20.40
2019-04-01T23:02:56.336Z,20.90
2019-04-01T23:05:00.039Z,20.90
2019-04-01T23:07:04.218Z,21.60
2019-04-01T23:09:08.956Z,21.00
2019-04-01T23:11:12.559Z,21.10
2019-04-01T23:13:17.611Z,21.70
2019-04-01T23:15:21.336Z,21.90
2019-04-01T23:17:24.928Z,22.20
2019-04-01T23:19:28.712Z,22.20
2019-04-01T23:21:32.364Z,22.20
2019-04-01T23:23:36.010Z,20.60
2019-04-01T23:25:39.664Z,20.90
2019-04-01T23:27:43.430Z,22.40
2019-04-01T23:29:47.180Z,21.90
2019-04-01T23:31:50.848Z,22.40
2019-04-01T23:33:54.689Z,22.50
2019-04-01T23:35:58.363Z,22.40
2019-04-01T23:38:02.033Z,22.30
2019-04-01T23:40:07.427Z,22.50
2019-04-01T23:42:11.103Z,22.70
2019-04-01T23:44:14.830Z,22.50
2019-04-01T23:46:19.130Z,22.80
2019-04-01T23:48:24.055Z,21.90
2019-04-01T23:50:27.679Z,22.70
2019-04-01T23:52:31.353Z,22.60
2019-04-01T23:54:35.118Z,22.60
2019-04-01T23:56:38.765Z,22.50
2019-04-01T23:58:42.372Z,22.60
